createdAt,value
2023-03-12T01:29:10.204Z,7.35
2023-03-12T01:39:12.165Z,7.38
2023-03-12T01:49:19.896Z,7.15
2023-03-12T01:59:25.787Z,6.32
2023-03-12T02:09:29.669Z,6.13
2023-03-12T02:19:41.019Z,7.90
2023-03-12T02:29:45.708Z,7.03
2023-03-12T02:39:55.313Z,7.72
2023-03-12T02:49:58.591Z,6.87
2023-03-12T03:00:00.513Z,4.13
2023-03-12T03:10:04.782Z,4.55
2023-03-12T03:20:07.495Z,5.40
2023-03-12T03:30:12.065Z,4.25
2023-03-12T03:40:13.998Z,7.57
2023-03-12T03:50:17.727Z,6.97
2023-03-12T04:00:20.206Z,5.97
2023-03-12T04:10:25.005Z,6.18
2023-03-12T04:20:26.966Z,6.20
2023-03-12T04:30:30.281Z,7.13
2023-03-12T04:40:32.228Z,7.45
2023-03-12T04:50:35.512Z,12.32
2023-03-12T05:00:39.380Z,10.05
2023-03-12T05:10:42.690Z,8.10
2023-03-12T05:20:44.582Z,7.95
2023-03-12T05:30:47.955Z,7.18
2023-03-12T05:40:53.658Z,6.78
2023-03-12T05:50:57.241Z,6.93
2023-03-12T06:00:59.550Z,7.38
2023-03-12T06:11:02.896Z,7.32
2023-03-12T06:21:12.502Z,8.23
2023-03-12T06:31:16.598Z,7.27
2023-03-12T06:41:20.323Z,10.95
2023-03-12T06:51:23.665Z,9.77
2023-03-12T07:01:25.819Z,9.73
2023-03-12T07:11:29.134Z,9.35
2023-03-12T07:21:31.104Z,6.93
2023-03-12T07:31:34.427Z,8.40
2023-03-12T07:41:36.335Z,7.88
2023-03-12T07:51:39.635Z,7.82
2023-03-12T08:01:43.924Z,8.35
2023-03-12T08:11:48.248Z,7.25
2023-03-12T08:21:50.271Z,10.10
2023-03-12T08:32:04.010Z,9.60
2023-03-12T08:42:07.029Z,6.45
2023-03-12T08:52:10.391Z,9.15
2023-03-12T09:02:12.964Z,8.10
2023-03-12T09:12:16.381Z,8.23
2023-03-12T09:22:18.331Z,7.60
2023-03-12T09:32:21.666Z,9.15
2023-03-12T09:42:27.525Z,6.43
2023-03-12T10:03:59.459Z,7.25
2023-03-12T10:14:23.423Z,7.03
2023-03-12T10:24:39.056Z,6.70
2023-03-12T10:34:45.591Z,6.80
2023-03-12T10:44:52.744Z,7.10
2023-03-12T10:54:54.696Z,7.00
2023-03-12T11:04:58.687Z,6.43
2023-03-12T11:15:17.525Z,6.85
2023-03-12T11:25:26.071Z,7.07
2023-03-12T11:35:42.609Z,8.23
2023-03-12T11:46:00.693Z,7.10
2023-03-12T11:56:14.218Z,6.95
2023-03-12T12:06:26.211Z,7.40
2023-03-12T12:16:50.262Z,7.70
2023-03-12T12:38:10.459Z,8.35
2023-03-12T12:48:17.747Z,10.27
2023-03-12T12:58:26.650Z,11.45
2023-03-12T13:08:34.353Z,8.07
2023-03-12T13:18:38.917Z,9.10
2023-03-12T13:29:11.461Z,7.53
2023-03-12T13:39:29.787Z,9.90
2023-03-12T13:49:40.533Z,6.40
2023-03-12T13:59:50.327Z,3.90
2023-03-12T14:20:01.874Z,4.18
2023-03-12T14:30:12.075Z,5.90
2023-03-12T14:40:23.537Z,6.40
2023-03-12T14:50:28.301Z,5.45
2023-03-12T15:00:32.177Z,4.53
2023-03-12T15:10:34.167Z,4.95
2023-03-12T15:20:37.846Z,4.32
2023-03-12T15:30:40.952Z,3.40
2023-03-12T15:40:49.288Z,3.58
2023-03-12T15:50:51.285Z,3.60
2023-03-12T16:00:54.924Z,3.25
2023-03-12T16:10:56.909Z,2.33
2023-03-12T16:21:00.247Z,2.47
2023-03-12T16:31:02.675Z,2.40
2023-03-12T16:41:06.070Z,3.00
2023-03-12T16:51:13.954Z,2.83
2023-03-12T17:01:19.344Z,4.43
2023-03-12T17:11:23.620Z,3.70
2023-03-12T17:21:26.997Z,3.80
2023-03-12T17:31:29.169Z,3.22
2023-03-12T17:41:33.337Z,3.45
2023-03-12T17:51:35.426Z,6.78
2023-03-12T18:12:42.220Z,7.10
2023-03-12T18:22:44.555Z,5.60
2023-03-12T18:42:59.886Z,7.40
2023-03-12T18:53:01.904Z,8.75
2023-03-12T19:03:05.366Z,8.25
2023-03-12T19:13:07.533Z,6.95
2023-03-12T19:23:10.835Z,5.65
2023-03-12T19:33:13.009Z,5.45
2023-03-12T19:43:16.488Z,4.40
2023-03-12T19:53:18.518Z,3.58
2023-03-12T20:03:21.863Z,5.00
2023-03-12T20:13:23.827Z,3.70
2023-03-12T20:23:27.173Z,2.20
2023-03-12T20:33:29.132Z,2.50
2023-03-12T20:43:32.449Z,1.75
2023-03-12T20:54:07.398Z,1.48
2023-03-12T21:04:10.746Z,1.20
2023-03-12T21:14:12.679Z,1.20
2023-03-12T21:24:15.970Z,0.90
2023-03-12T21:34:17.888Z,0.70
2023-03-12T21:44:21.193Z,0.57
2023-03-12T21:54:23.366Z,0.60
2023-03-12T22:15:30.406Z,1.90
2023-03-12T22:25:34.563Z,1.65
2023-03-12T22:35:43.482Z,1.55
2023-03-12T22:45:45.469Z,1.60
2023-03-12T22:55:56.772Z,0.90
2023-03-12T23:05:59.331Z,0.95
2023-03-12T23:16:03.896Z,1.10
2023-03-12T23:26:06.507Z,1.80
2023-03-12T23:36:12.524Z,1.65
2023-03-12T23:46:15.691Z,3.63
2023-03-12T23:56:21.624Z,4.68
